Time;durP1;ratioP1;P1;durP2;ratioP2;P2;SDS_P1;SDS_P2;PMS_P1;PMS_P2;Temp;Humidity;BMP_temperature;BMP_pressure;BME280_temperature;BME280_humidity;BME280_pressure;Samples;Min_cycle;Max_cycle;Signal;HPM_P1;HPM_P2
2022/10/08 00:01:33;;;;;;;9.10;7.20;;;16.30;99.90;;;;;;5051812;28;20634;-53
2022/10/08 00:04:02;;;;;;;10.53;7.27;;;16.30;99.90;;;;;;5051634;28;20673;-54
2022/10/08 00:06:29;;;;;;;8.73;7.10;;;16.30;99.90;;;;;;5051080;28;20201;-55
2022/10/08 00:08:58;;;;;;;9.27;6.60;;;16.30;99.90;;;;;;5051591;28;20205;-56
2022/10/08 00:11:28;;;;;;;11.13;6.23;;;16.20;99.90;;;;;;5051617;28;20234;-54
2022/10/08 00:13:56;;;;;;;7.77;5.73;;;16.20;99.90;;;;;;5051861;28;20220;-54
2022/10/08 00:16:24;;;;;;;8.73;6.43;;;16.00;99.90;;;;;;5050845;28;20591;-54
2022/10/08 00:18:54;;;;;;;7.43;6.43;;;15.90;99.90;;;;;;5051636;28;20217;-58
2022/10/08 00:21:23;;;;;;;7.97;5.90;;;15.80;99.90;;;;;;5051541;28;20252;-54
2022/10/08 00:23:51;;;;;;;8.57;6.30;;;15.70;99.90;;;;;;5051720;28;20209;-53
2022/10/08 00:26:22;;;;;;;11.80;6.40;;;15.70;99.90;;;;;;5051216;28;20217;-53
2022/10/08 00:28:52;;;;;;;9.17;7.07;;;15.70;99.90;;;;;;5051686;28;20213;-55
2022/10/08 00:31:21;;;;;;;9.50;6.00;;;15.70;99.90;;;;;;5051441;28;20784;-53
2022/10/08 00:33:49;;;;;;;13.00;6.30;;;15.80;99.90;;;;;;5051689;28;20201;-53
2022/10/08 00:36:17;;;;;;;12.87;6.97;;;15.80;99.90;;;;;;5052091;28;20209;-54
2022/10/08 00:38:43;;;;;;;6.40;5.80;;;15.90;99.90;;;;;;5055641;28;20297;-54
2022/10/08 00:41:19;;;;;;;10.83;6.40;;;15.90;99.90;;;;;;5055428;28;20597;-53
2022/10/08 00:43:48;;;;;;;7.77;6.77;;;15.90;99.90;;;;;;5055432;28;20237;-53
2022/10/08 00:46:24;;;;;;;10.57;6.40;;;16.00;99.90;;;;;;5055134;28;20221;-53
2022/10/08 00:48:53;;;;;;;7.30;5.93;;;16.10;99.90;;;;;;5055187;28;20255;-53
2022/10/08 00:51:20;;;;;;;10.97;6.63;;;16.20;99.90;;;;;;5055378;28;20241;-53
2022/10/08 00:53:47;;;;;;;6.40;5.63;;;16.20;99.90;;;;;;5055283;28;20213;-53
2022/10/08 00:56:14;;;;;;;9.40;6.03;;;16.30;99.90;;;;;;5054595;28;20212;-55
2022/10/08 00:58:43;;;;;;;10.10;6.07;;;16.30;99.90;;;;;;5054959;28;20581;-53
2022/10/08 01:01:10;;;;;;;11.05;6.50;;;16.20;99.90;;;;;;5055133;28;20217;-55
2022/10/08 01:03:38;;;;;;;8.60;6.50;;;16.20;99.90;;;;;;5055140;28;20205;-53
2022/10/08 01:06:13;;;;;;;11.80;7.37;;;16.10;99.90;;;;;;5054340;28;20592;-53
2022/10/08 01:08:51;;;;;;;9.20;6.60;;;16.00;99.90;;;;;;5054684;28;20636;-53
2022/10/08 01:11:28;;;;;;;9.33;6.03;;;15.80;99.90;;;;;;5054878;28;20233;-53
2022/10/08 01:14:04;;;;;;;10.07;6.47;;;15.70;99.90;;;;;;5054877;28;20665;-54
2022/10/08 01:16:41;;;;;;;50.07;44.67;;;15.70;99.90;;;;;;5054227;28;20209;-53
2022/10/08 01:19:26;;;;;;;17.50;9.87;;;15.50;99.90;;;;;;5054862;28;20201;-53
2022/10/08 01:22:01;;;;;;;8.77;7.23;;;15.40;99.90;;;;;;5054616;28;20287;-54
2022/10/08 01:27:28;;;;;;;11.43;7.07;;;15.40;99.90;;;;;;5054016;28;20583;-53
2022/10/08 01:29:56;;;;;;;9.87;7.00;;;15.40;99.90;;;;;;5054468;28;20208;-53
2022/10/08 01:32:30;;;;;;;7.93;7.03;;;15.30;99.90;;;;;;5072505;22;20700;-56
2022/10/08 01:35:02;;;;;;;11.47;7.27;;;15.30;99.90;;;;;;5047958;28;20209;-56
2022/10/08 01:37:31;;;;;;;10.60;7.10;;;15.20;99.90;;;;;;5056234;28;20213;-56
2022/10/08 01:40:01;;;;;;;7.73;7.00;;;15.20;99.90;;;;;;5056482;28;20280;-56
2022/10/08 01:42:32;;;;;;;10.63;6.63;;;15.20;99.90;;;;;;5055988;28;20225;-57
2022/10/08 01:45:03;;;;;;;7.47;6.50;;;15.20;99.90;;;;;;5055585;28;20212;-56
2022/10/08 01:47:31;;;;;;;7.57;6.70;;;15.20;99.90;;;;;;5054965;28;20213;-56
2022/10/08 01:50:01;;;;;;;9.03;6.67;;;15.10;99.90;;;;;;5055447;28;20193;-56
2022/10/08 01:52:32;;;;;;;8.13;6.57;;;15.20;99.90;;;;;;5055146;28;20225;-57
2022/10/08 01:55:02;;;;;;;8.60;6.53;;;15.10;99.90;;;;;;5055083;28;20201;-57
2022/10/08 01:57:33;;;;;;;12.57;6.83;;;15.10;99.90;;;;;;5054213;28;20213;-59
2022/10/08 02:00:05;;;;;;;9.27;6.93;;;15.10;99.90;;;;;;5055137;28;20210;-57
2022/10/08 02:02:32;;;;;;;8.10;6.60;;;15.10;99.90;;;;;;5054873;28;20225;-56
2022/10/08 02:04:59;;;;;;;7.30;6.60;;;15.00;99.90;;;;;;5055153;28;20233;-57
2022/10/08 02:07:28;;;;;;;9.00;6.50;;;15.00;99.90;;;;;;5054739;28;20213;-56
2022/10/08 02:10:04;;;;;;;8.40;6.60;;;14.90;99.90;;;;;;5054765;28;20209;-57
2022/10/08 02:12:32;;;;;;;9.47;7.10;;;14.90;99.90;;;;;;5054761;28;20228;-57
2022/10/08 02:15:00;;;;;;;10.30;7.10;;;14.90;99.90;;;;;;5054519;28;20257;-58
2022/10/08 02:17:38;;;;;;;7.73;6.93;;;14.90;99.90;;;;;;5053863;28;20213;-57
2022/10/08 02:20:15;;;;;;;12.37;7.93;;;14.90;99.90;;;;;;5054167;28;20219;-56
2022/10/08 02:22:47;;;;;;;10.27;7.10;;;14.90;99.90;;;;;;5054222;28;20495;-57
2022/10/08 02:25:21;;;;;;;7.37;6.47;;;14.90;99.90;;;;;;5054146;28;20228;-57
2022/10/08 02:27:57;;;;;;;7.63;6.80;;;15.00;99.90;;;;;;5053895;28;20267;-57
2022/10/08 02:30:25;;;;;;;10.07;6.57;;;15.10;99.90;;;;;;5053965;28;20282;-57
2022/10/08 02:32:59;;;;;;;9.80;7.07;;;15.10;99.90;;;;;;5053787;28;20240;-56
2022/10/08 02:35:33;;;;;;;9.17;6.33;;;15.10;99.90;;;;;;5053703;28;20204;-57
2022/10/08 02:38:05;;;;;;;10.90;6.17;;;15.10;99.90;;;;;;5053644;28;20198;-57
2022/10/08 02:40:34;;;;;;;8.07;6.03;;;15.10;99.90;;;;;;5053779;28;20197;-58
2022/10/08 02:43:08;;;;;;;13.87;6.80;;;15.10;99.90;;;;;;5053739;28;20229;-58
2022/10/08 02:45:41;;;;;;;9.70;6.20;;;15.10;99.90;;;;;;5053469;28;20330;-57
2022/10/08 02:48:13;;;;;;;11.00;6.53;;;15.10;99.90;;;;;;5053486;28;20558;-58
2022/10/08 02:50:43;;;;;;;11.27;6.53;;;15.10;99.90;;;;;;5053971;28;20367;-56
2022/10/08 02:53:13;;;;;;;7.90;6.50;;;15.10;99.90;;;;;;5053662;28;20229;-57
2022/10/08 02:55:45;;;;;;;9.13;6.40;;;15.20;99.90;;;;;;5052987;28;20206;-57
2022/10/08 02:58:14;;;;;;;9.17;6.40;;;15.30;99.90;;;;;;5053658;28;20292;-57
2022/10/08 03:00:44;;;;;;;7.77;6.13;;;15.30;99.90;;;;;;5052914;28;20296;-55
2022/10/08 03:03:14;;;;;;;9.27;6.33;;;15.40;99.90;;;;;;5053454;28;20256;-57
2022/10/08 03:05:42;;;;;;;8.80;6.40;;;15.40;99.90;;;;;;5052935;28;20227;-57
2022/10/08 03:08:13;;;;;;;8.23;6.37;;;15.50;99.90;;;;;;5053317;28;20205;-58
2022/10/08 03:10:41;;;;;;;7.60;6.40;;;15.50;99.90;;;;;;5053765;28;20579;-57
2022/10/08 03:13:09;;;;;;;14.40;10.50;;;15.60;99.90;;;;;;5053622;28;20232;-57
2022/10/08 03:15:40;;;;;;;11.40;7.57;;;15.70;99.90;;;;;;5053050;28;20212;-57
2022/10/08 03:18:10;;;;;;;9.40;6.77;;;15.80;99.90;;;;;;5054351;28;20631;-57
2022/10/08 03:20:41;;;;;;;10.93;6.40;;;15.90;99.90;;;;;;5054538;28;20201;-57
2022/10/08 03:23:08;;;;;;;12.77;6.67;;;15.90;99.90;;;;;;5054161;28;20257;-57
2022/10/08 03:25:35;;;;;;;7.23;6.03;;;15.90;99.90;;;;;;5053353;28;20292;-57
2022/10/08 03:28:02;;;;;;;11.55;6.30;;;15.90;99.90;;;;;;5053652;28;20598;-57
2022/10/08 03:30:28;;;;;;;8.53;6.30;;;15.80;99.90;;;;;;5053776;28;20587;-57
2022/10/08 03:32:57;;;;;;;8.18;5.88;;;15.90;99.90;;;;;;5053862;28;20720;-56
2022/10/08 03:35:24;;;;;;;10.13;6.47;;;15.90;99.90;;;;;;5053284;28;20205;-58
2022/10/08 03:37:52;;;;;;;10.50;5.97;;;15.90;99.90;;;;;;5053494;28;20213;-57
2022/10/08 03:40:19;;;;;;;11.67;6.43;;;16.00;99.90;;;;;;5053218;28;20205;-57
2022/10/08 03:42:46;;;;;;;11.00;5.90;;;16.00;99.90;;;;;;5053199;28;20256;-57
2022/10/08 03:45:13;;;;;;;7.20;5.70;;;16.10;99.90;;;;;;5052745;28;20208;-57
2022/10/08 03:47:40;;;;;;;7.80;6.10;;;16.10;99.90;;;;;;5052181;28;20203;-57
2022/10/08 03:50:10;;;;;;;7.77;6.43;;;16.10;99.90;;;;;;5052762;28;20221;-57
2022/10/08 03:52:36;;;;;;;8.70;5.83;;;16.10;99.90;;;;;;5052928;28;20312;-57
2022/10/08 03:55:04;;;;;;;13.50;6.70;;;16.00;99.90;;;;;;5052654;28;20198;-58
2022/10/08 03:57:31;;;;;;;10.05;7.28;;;15.70;99.90;;;;;;5052175;28;20277;-57
2022/10/08 03:59:58;;;;;;;9.43;7.83;;;15.50;99.90;;;;;;5052399;28;20228;-56
2022/10/08 04:02:25;;;;;;;9.70;6.77;;;15.30;99.90;;;;;;5052404;28;20252;-57
2022/10/08 04:04:52;;;;;;;13.00;7.27;;;15.30;99.90;;;;;;5052623;28;20213;-57
2022/10/08 04:07:20;;;;;;;9.13;7.10;;;15.20;99.90;;;;;;5052250;28;20692;-56
2022/10/08 04:09:47;;;;;;;8.33;6.80;;;15.10;99.90;;;;;;5052641;28;20208;-58
2022/10/08 04:12:14;;;;;;;9.13;6.93;;;15.20;99.90;;;;;;5056107;28;20424;-58
2022/10/08 04:14:41;;;;;;;8.53;7.23;;;15.30;99.90;;;;;;5056967;28;20244;-58
2022/10/08 04:17:08;;;;;;;10.23;7.27;;;15.40;99.90;;;;;;5056252;28;20262;-58
2022/10/08 04:19:35;;;;;;;10.43;7.40;;;15.50;99.90;;;;;;5056566;28;20205;-57
2022/10/08 04:22:02;;;;;;;9.43;7.50;;;15.50;99.90;;;;;;5056280;28;20229;-58
2022/10/08 04:24:30;;;;;;;9.60;7.40;;;15.60;99.90;;;;;;5056349;28;20205;-56
2022/10/08 04:26:56;;;;;;;10.37;7.40;;;15.80;99.90;;;;;;5055972;28;20240;-56
2022/10/08 04:29:23;;;;;;;8.40;7.40;;;15.90;99.90;;;;;;5056664;28;20201;-56
2022/10/08 04:31:50;;;;;;;8.63;7.17;;;15.80;99.90;;;;;;5056163;28;20308;-56
2022/10/08 04:34:17;;;;;;;9.90;7.33;;;15.90;99.90;;;;;;5056443;28;20662;-55
2022/10/08 04:36:44;;;;;;;10.87;7.43;;;16.00;99.90;;;;;;5055755;28;20259;-56
2022/10/08 04:39:12;;;;;;;7.50;6.60;;;16.10;99.90;;;;;;5057665;28;20594;-56
2022/10/08 04:41:40;;;;;;;10.33;7.17;;;16.10;99.90;;;;;;5055854;28;20447;-56
2022/10/08 04:44:07;;;;;;;9.97;7.10;;;16.20;99.90;;;;;;5055776;28;20241;-56
2022/10/08 04:46:34;;;;;;;8.83;7.03;;;16.20;99.90;;;;;;5055866;28;20589;-56
2022/10/08 04:49:01;;;;;;;9.53;6.37;;;16.30;99.90;;;;;;5056169;28;20205;-56
2022/10/08 04:51:28;;;;;;;12.97;9.03;;;16.30;99.90;;;;;;5055910;28;20231;-55
2022/10/08 04:53:56;;;;;;;9.57;7.47;;;16.30;99.90;;;;;;5055991;28;20205;-56
2022/10/08 04:56:24;;;;;;;28.47;20.47;;;16.30;99.90;;;;;;5055425;28;20300;-56
2022/10/08 04:58:53;;;;;;;14.13;8.43;;;16.30;99.90;;;;;;5056029;28;20206;-56
2022/10/08 05:01:21;;;;;;;11.93;7.53;;;16.30;99.90;;;;;;5055888;28;20222;-56
2022/10/08 05:03:50;;;;;;;11.90;6.97;;;16.40;99.90;;;;;;5056330;28;20689;-57
2022/10/08 05:06:18;;;;;;;12.85;7.55;;;16.30;99.90;;;;;;5055791;28;20213;-57
2022/10/08 05:08:46;;;;;;;9.18;7.65;;;16.30;99.90;;;;;;5056261;28;20614;-57
2022/10/08 05:11:13;;;;;;;11.10;7.63;;;16.20;99.90;;;;;;5055928;28;20229;-57
2022/10/08 05:13:41;;;;;;;11.57;7.30;;;16.20;99.90;;;;;;5056368;28;20205;-56
2022/10/08 05:16:12;;;;;;;10.23;8.43;;;16.20;99.90;;;;;;5056665;28;20394;-56
2022/10/08 05:18:40;;;;;;;9.88;7.40;;;16.30;99.90;;;;;;5056668;28;20212;-58
2022/10/08 05:21:09;;;;;;;14.95;7.13;;;16.30;99.90;;;;;;5056022;28;20201;-57
2022/10/08 05:23:37;;;;;;;12.68;7.80;;;16.30;99.90;;;;;;5055348;28;20564;-57
2022/10/08 05:26:11;;;;;;;10.60;7.53;;;16.30;99.90;;;;;;5056200;28;20216;-57
2022/10/08 05:28:38;;;;;;;9.73;7.70;;;16.30;99.90;;;;;;5056693;28;20296;-56
2022/10/08 05:31:06;;;;;;;12.00;8.67;;;16.30;99.90;;;;;;5056747;28;20260;-57
2022/10/08 05:33:34;;;;;;;10.30;8.40;;;16.20;99.90;;;;;;5056213;28;20297;-57
2022/10/08 05:36:03;;;;;;;17.33;10.82;;;16.20;99.90;;;;;;5055474;28;20210;-57
2022/10/08 05:38:31;;;;;;;10.97;9.83;;;16.20;99.90;;;;;;5055654;28;20217;-56
2022/10/08 05:41:13;;;;;;;10.85;7.60;;;16.30;99.90;;;;;;5055980;28;20225;-57
2022/10/08 05:43:41;;;;;;;11.90;8.18;;;16.30;99.90;;;;;;5054141;28;20213;-57
2022/10/08 05:46:08;;;;;;;9.32;8.32;;;16.40;99.90;;;;;;5055066;28;20202;-57
2022/10/08 05:48:36;;;;;;;10.30;8.38;;;16.50;99.90;;;;;;5054950;28;20201;-56
2022/10/08 05:51:05;;;;;;;11.60;8.60;;;16.50;99.90;;;;;;5054944;28;20205;-57
2022/10/08 05:53:34;;;;;;;14.07;8.60;;;16.60;99.90;;;;;;5055466;28;20209;-57
2022/10/08 05:56:01;;;;;;;11.17;7.90;;;16.60;99.90;;;;;;5054659;28;20227;-57
2022/10/08 05:58:28;;;;;;;11.60;8.95;;;16.60;99.90;;;;;;5055257;28;20233;-56
2022/10/08 06:00:59;;;;;;;19.90;9.50;;;16.60;99.90;;;;;;5054851;28;20683;-59
2022/10/08 06:03:27;;;;;;;16.57;10.77;;;16.60;99.90;;;;;;5054896;28;20687;-58
2022/10/08 06:06:01;;;;;;;13.40;9.63;;;16.50;99.90;;;;;;5054646;28;20241;-58
2022/10/08 06:08:28;;;;;;;12.75;9.00;;;16.50;99.90;;;;;;5054964;28;20284;-57
2022/10/08 06:10:55;;;;;;;9.70;8.35;;;16.50;99.90;;;;;;5054699;28;20297;-58
2022/10/08 06:13:23;;;;;;;21.77;14.75;;;16.50;99.90;;;;;;5054655;28;20293;-58
2022/10/08 06:15:56;;;;;;;10.75;9.20;;;16.50;99.90;;;;;;5054104;28;20240;-57
2022/10/08 06:18:23;;;;;;;14.98;10.32;;;16.50;99.90;;;;;;5055135;28;20205;-57
2022/10/08 06:20:50;;;;;;;16.73;9.60;;;16.50;99.90;;;;;;5055046;28;20590;-58
2022/10/08 06:23:19;;;;;;;26.40;18.90;;;16.50;99.90;;;;;;5055102;28;20226;-58
2022/10/08 06:25:45;;;;;;;13.50;9.73;;;16.60;99.90;;;;;;5054373;28;20210;-57
2022/10/08 06:28:13;;;;;;;13.80;9.57;;;16.60;99.90;;;;;;5054295;28;20601;-57
2022/10/08 06:30:41;;;;;;;12.80;9.52;;;16.60;99.90;;;;;;5054735;28;20272;-58
2022/10/08 06:33:07;;;;;;;17.00;11.35;;;16.60;99.90;;;;;;5053689;28;20229;-62
2022/10/08 06:35:34;;;;;;;13.98;8.75;;;16.70;99.90;;;;;;5053136;28;20216;-57
2022/10/08 06:38:01;;;;;;;13.43;9.43;;;16.70;99.90;;;;;;5053181;28;20590;-57
2022/10/08 06:40:31;;;;;;;17.52;10.02;;;16.80;99.90;;;;;;5054211;28;20213;-58
2022/10/08 06:42:58;;;;;;;19.08;9.98;;;16.90;99.90;;;;;;5053874;28;20232;-58
2022/10/08 06:45:25;;;;;;;15.45;9.52;;;17.10;99.90;;;;;;5054094;28;20304;-58
2022/10/08 06:47:52;;;;;;;12.15;9.00;;;17.30;99.90;;;;;;5053484;28;20205;-57
2022/10/08 06:50:19;;;;;;;18.15;11.40;;;17.50;99.90;;;;;;5053917;28;20586;-58
2022/10/08 06:52:46;;;;;;;16.92;9.77;;;17.60;99.90;;;;;;5053208;28;20362;-58
2022/10/08 06:55:13;;;;;;;17.75;8.95;;;17.80;99.90;;;;;;5053334;28;20661;-59
2022/10/08 06:57:41;;;;;;;10.10;8.13;;;18.10;99.90;;;;;;5053247;28;20221;-58
2022/10/08 07:00:09;;;;;;;14.20;8.63;;;18.40;99.90;;;;;;5053862;28;20237;-57
2022/10/08 07:02:36;;;;;;;9.95;7.70;;;18.80;99.90;;;;;;5054435;28;20221;-57
2022/10/08 07:05:03;;;;;;;13.15;8.93;;;19.00;99.90;;;;;;5054133;28;20297;-58
2022/10/08 07:07:30;;;;;;;11.82;8.15;;;19.30;99.90;;;;;;5054337;28;20205;-59
2022/10/08 07:09:57;;;;;;;13.20;8.38;;;19.70;99.90;;;;;;5054040;28;20210;-58
2022/10/08 07:12:23;;;;;;;15.48;7.88;;;20.00;99.90;;;;;;5053707;28;20252;-58
2022/10/08 07:14:52;;;;;;;11.75;7.75;;;20.30;99.90;;;;;;5053625;28;20209;-58
2022/10/08 07:17:19;;;;;;;12.23;7.10;;;20.40;99.90;;;;;;5053346;28;20210;-56
2022/10/08 07:19:46;;;;;;;10.25;7.95;;;20.70;99.90;;;;;;5053708;28;20205;-58
2022/10/08 07:22:14;;;;;;;11.52;7.05;;;21.00;99.90;;;;;;5053680;28;20294;-58
2022/10/08 07:24:41;;;;;;;10.68;7.00;;;21.00;99.90;;;;;;5054657;28;20209;-57
2022/10/08 07:27:08;;;;;;;10.80;6.78;;;21.00;99.90;;;;;;5055020;28;20209;-57
2022/10/08 07:29:35;;;;;;;11.18;6.95;;;20.80;99.90;;;;;;5055271;28;20205;-58
2022/10/08 07:32:03;;;;;;;8.23;6.70;;;20.80;99.90;;;;;;5073372;22;20234;-59
2022/10/08 07:34:30;;;;;;;12.82;6.65;;;20.50;99.90;;;;;;5043953;28;20201;-58
2022/10/08 07:36:56;;;;;;;13.90;7.30;;;20.30;99.90;;;;;;5051328;28;20205;-57
2022/10/08 07:39:23;;;;;;;8.35;6.32;;;20.20;99.90;;;;;;5052099;28;20214;-59
2022/10/08 07:41:50;;;;;;;15.40;8.57;;;20.00;99.90;;;;;;5051714;28;20580;-58
2022/10/08 07:44:17;;;;;;;15.30;8.55;;;20.00;99.90;;;;;;5052117;28;20206;-58
2022/10/08 07:46:46;;;;;;;13.82;5.78;;;19.90;99.90;;;;;;5051434;28;20205;-58
2022/10/08 07:49:15;;;;;;;8.65;6.47;;;19.90;99.90;;;;;;5051781;28;20213;-58
2022/10/08 07:51:42;;;;;;;10.82;5.82;;;19.90;99.90;;;;;;5051927;28;20229;-58
2022/10/08 07:54:13;;;;;;;9.65;6.18;;;19.60;99.90;;;;;;5051847;28;20212;-57
2022/10/08 07:56:39;;;;;;;16.42;6.32;;;19.50;99.90;;;;;;5051372;28;20205;-57
2022/10/08 07:59:07;;;;;;;8.20;5.10;;;19.50;99.90;;;;;;5051704;28;20212;-59
2022/10/08 08:01:34;;;;;;;12.30;6.05;;;19.60;99.90;;;;;;5051833;28;20210;-57
2022/10/08 08:04:02;;;;;;;11.48;5.15;;;19.70;99.90;;;;;;5051670;28;20202;-57
2022/10/08 08:06:31;;;;;;;10.65;4.57;;;19.70;99.90;;;;;;5051447;28;20205;-58
2022/10/08 08:09:00;;;;;;;7.88;4.20;;;19.70;99.90;;;;;;5051534;28;20575;-58
2022/10/08 08:11:27;;;;;;;9.18;3.83;;;19.80;99.90;;;;;;5051658;28;20209;-59
2022/10/08 08:13:54;;;;;;;12.70;4.57;;;19.80;99.90;;;;;;5051359;28;20606;-60
2022/10/08 08:16:24;;;;;;;10.13;4.40;;;19.80;99.90;;;;;;5051065;28;20232;-58
2022/10/08 08:18:52;;;;;;;9.25;3.85;;;19.70;99.90;;;;;;5051808;28;20225;-58
2022/10/08 08:21:21;;;;;;;10.73;4.43;;;19.70;99.90;;;;;;5031016;28;20460;-58
2022/10/08 08:23:51;;;;;;;9.48;4.18;;;19.70;99.90;;;;;;5048995;28;20202;-62
2022/10/08 08:26:20;;;;;;;7.75;3.17;;;19.80;99.90;;;;;;5050913;28;20208;-59
2022/10/08 08:28:51;;;;;;;14.98;3.95;;;19.90;99.90;;;;;;5051557;28;20220;-60
2022/10/08 08:31:20;;;;;;;9.02;3.40;;;19.90;99.90;;;;;;5051937;28;20221;-59
2022/10/08 08:33:49;;;;;;;7.10;3.08;;;19.90;99.90;;;;;;5051669;28;20228;-58
2022/10/08 08:36:17;;;;;;;13.30;3.50;;;19.80;99.90;;;;;;5050656;28;20233;-58
2022/10/08 08:38:44;;;;;;;9.32;3.70;;;19.70;99.90;;;;;;5051798;28;20248;-60
2022/10/08 08:41:25;;;;;;;7.53;3.58;;;19.90;99.90;;;;;;5051720;28;20217;-58
2022/10/08 08:43:58;;;;;;;8.77;3.28;;;19.90;99.90;;;;;;5051697;28;20201;-59
2022/10/08 08:46:26;;;;;;;5.20;2.70;;;19.70;99.90;;;;;;5051177;28;20233;-59
2022/10/08 08:48:54;;;;;;;7.57;3.25;;;19.40;99.90;;;;;;5051535;28;20209;-58
2022/10/08 08:51:21;;;;;;;7.90;3.38;;;19.20;99.90;;;;;;5051615;28;20687;-59
2022/10/08 08:53:48;;;;;;;9.23;3.08;;;19.10;99.90;;;;;;5051382;28;20225;-58
2022/10/08 08:56:21;;;;;;;9.43;3.33;;;19.20;99.90;;;;;;5050751;28;20236;-59
2022/10/08 08:58:51;;;;;;;6.80;2.70;;;19.30;99.90;;;;;;5055010;28;20213;-59
2022/10/08 09:01:29;;;;;;;8.32;2.63;;;19.50;99.90;;;;;;5055354;28;20213;-58
2022/10/08 09:03:58;;;;;;;9.75;2.33;;;19.70;99.90;;;;;;5055406;28;20213;-59
2022/10/08 09:06:26;;;;;;;8.77;2.72;;;19.90;99.90;;;;;;5054770;28;20212;-59
2022/10/08 09:08:56;;;;;;;9.32;2.28;;;20.20;99.90;;;;;;5055101;28;20211;-58
2022/10/08 09:11:24;;;;;;;9.77;2.88;;;20.30;99.90;;;;;;5055099;28;20209;-58
2022/10/08 09:13:56;;;;;;;7.18;2.58;;;20.40;99.90;;;;;;5054758;28;20248;-59
2022/10/08 09:16:23;;;;;;;5.57;2.50;;;20.50;99.90;;;;;;5054213;28;20210;-59
2022/10/08 09:18:51;;;;;;;6.40;2.58;;;20.90;99.90;;;;;;5054796;28;20212;-59
2022/10/08 09:21:19;;;;;;;6.93;2.67;;;21.10;99.90;;;;;;5055361;28;20213;-59
2022/10/08 09:23:47;;;;;;;10.82;2.40;;;21.20;99.90;;;;;;5054889;28;20604;-60
2022/10/08 09:26:17;;;;;;;5.55;2.28;;;21.20;99.90;;;;;;5054391;28;20216;-59
2022/10/08 09:28:47;;;;;;;9.23;2.70;;;21.20;99.90;;;;;;5055054;28;20205;-58
2022/10/08 09:31:22;;;;;;;9.63;2.17;;;21.20;99.90;;;;;;5054809;28;20210;-58
2022/10/08 09:33:57;;;;;;;9.52;2.10;;;21.30;99.90;;;;;;5054898;28;20256;-59
2022/10/08 09:36:34;;;;;;;9.85;2.03;;;21.20;99.90;;;;;;5054080;28;20201;-57
2022/10/08 09:39:03;;;;;;;8.25;2.60;;;21.20;99.90;;;;;;5054663;28;20208;-58
2022/10/08 09:41:30;;;;;;;5.70;2.40;;;21.00;99.90;;;;;;5054378;28;20305;-59
2022/10/08 09:44:14;;;;;;;9.48;2.70;;;20.60;99.90;;;;;;5054528;28;20209;-58
2022/10/08 09:46:41;;;;;;;12.13;2.60;;;20.40;99.90;;;;;;5054122;28;20224;-62
2022/10/08 09:49:31;;;;;;;8.13;2.55;;;20.20;99.90;;;;;;5054519;28;20216;-58
2022/10/08 09:52:00;;;;;;;7.88;2.35;;;20.10;99.90;;;;;;5054304;28;20295;-58
2022/10/08 09:54:29;;;;;;;9.63;2.50;;;20.00;99.90;;;;;;5053933;28;20232;-58
2022/10/08 09:56:58;;;;;;;9.68;2.60;;;19.90;99.90;;;;;;5053841;28;20213;-58
2022/10/08 09:59:29;;;;;;;8.48;2.50;;;19.70;99.90;;;;;;5054348;28;20212;-59
2022/10/08 10:01:56;;;;;;;13.13;2.67;;;19.50;99.90;;;;;;5054267;28;20225;-58
2022/10/08 10:04:31;;;;;;;8.60;2.72;;;19.30;99.90;;;;;;5054204;28;20226;-58
2022/10/08 10:06:58;;;;;;;11.57;2.85;;;19.20;99.90;;;;;;5053476;28;20267;-58
2022/10/08 10:09:37;;;;;;;6.35;2.42;;;19.10;99.90;;;;;;5053047;28;20206;-60
2022/10/08 10:12:11;;;;;;;8.88;2.50;;;19.00;99.90;;;;;;5054177;28;20248;-58
2022/10/08 10:14:44;;;;;;;8.07;2.47;;;18.90;99.90;;;;;;5053927;28;20233;-59
2022/10/08 10:17:18;;;;;;;10.98;2.58;;;18.90;99.90;;;;;;5053688;28;20581;-57
2022/10/08 10:19:52;;;;;;;11.13;4.50;;;19.00;99.90;;;;;;5054522;28;20205;-58
2022/10/08 10:22:24;;;;;;;6.68;2.13;;;19.20;99.90;;;;;;5054006;28;20634;-61
2022/10/08 10:24:56;;;;;;;9.65;2.75;;;19.40;99.90;;;;;;5053976;28;20607;-61
2022/10/08 10:27:31;;;;;;;9.50;2.95;;;19.50;99.90;;;;;;5053190;28;20210;-60
2022/10/08 10:30:13;;;;;;;11.40;2.60;;;19.70;99.90;;;;;;5053449;28;20208;-62
2022/10/08 10:32:44;;;;;;;13.25;2.42;;;20.00;99.90;;;;;;5053568;28;20271;-61
2022/10/08 10:35:16;;;;;;;5.78;2.50;;;19.90;99.90;;;;;;5053524;28;20649;-62
2022/10/08 10:37:50;;;;;;;9.57;3.03;;;19.70;99.90;;;;;;5052953;28;20395;-62
2022/10/08 10:40:40;;;;;;;34.88;4.75;;;19.60;99.90;;;;;;5053288;28;20209;-62
2022/10/08 10:43:24;;;;;;;8.40;2.40;;;19.60;99.90;;;;;;5049854;28;20257;-62
2022/10/08 10:45:56;;;;;;;14.48;5.60;;;19.60;99.90;;;;;;5053681;28;20210;-61
2022/10/08 10:48:22;;;;;;;6.63;2.58;;;19.50;99.90;;;;;;5052602;28;20209;-61
2022/10/08 10:51:03;;;;;;;7.10;2.00;;;19.50;99.90;;;;;;5053030;28;20212;-61
2022/10/08 10:53:39;;;;;;;8.82;2.28;;;19.50;99.90;;;;;;5053125;28;20229;-62
2022/10/08 10:56:12;;;;;;;7.78;2.60;;;19.50;99.90;;;;;;5052801;28;20205;-61
2022/10/08 10:58:46;;;;;;;5.28;2.15;;;19.70;99.90;;;;;;5053096;28;20562;-61
2022/10/08 11:01:27;;;;;;;11.52;2.97;;;19.70;99.90;;;;;;5053049;28;20205;-62
2022/10/08 11:04:01;;;;;;;9.70;2.60;;;19.80;99.90;;;;;;5053122;28;20210;-63
2022/10/08 11:06:45;;;;;;;11.13;3.03;;;20.00;99.90;;;;;;5052191;28;20221;-62
2022/10/08 11:09:20;;;;;;;9.52;2.75;;;20.30;99.90;;;;;;5052761;28;20604;-62
2022/10/08 11:11:51;;;;;;;8.20;2.45;;;20.50;99.90;;;;;;5052880;28;20232;-61
2022/10/08 11:14:37;;;;;;;9.07;3.00;;;20.80;99.90;;;;;;5052974;28;20279;-63
2022/10/08 11:17:16;;;;;;;10.75;2.60;;;20.90;99.90;;;;;;5052382;28;20209;-62
2022/10/08 11:19:51;;;;;;;9.65;2.47;;;20.90;99.90;;;;;;5052313;28;20202;-62
2022/10/08 11:22:24;;;;;;;14.18;4.28;;;20.80;99.90;;;;;;5052732;28;20230;-62
2022/10/08 11:25:03;;;;;;;7.78;2.15;;;20.60;99.90;;;;;;5052666;28;20197;-62
2022/10/08 11:27:41;;;;;;;7.95;3.17;;;20.30;99.90;;;;;;5051977;28;20205;-62
2022/10/08 11:30:13;;;;;;;7.85;2.05;;;20.10;99.90;;;;;;5052169;28;20216;-61
2022/10/08 11:32:43;;;;;;;8.50;2.63;;;20.10;99.90;;;;;;5052569;28;20272;-62
2022/10/08 11:35:21;;;;;;;9.68;2.33;;;20.30;99.90;;;;;;5052570;28;20233;-62
2022/10/08 11:37:55;;;;;;;6.63;1.80;;;20.50;99.90;;;;;;5052019;28;20660;-63
2022/10/08 11:40:29;;;;;;;9.75;2.22;;;20.60;99.60;;;;;;5052429;28;20216;-62
2022/10/08 11:43:03;;;;;;;6.10;1.70;;;20.70;99.00;;;;;;5052181;28;20229;-62
2022/10/08 11:45:35;;;;;;;5.30;2.03;;;20.60;98.30;;;;;;5052438;28;20216;-68
2022/10/08 11:48:29;;;;;;;6.25;2.00;;;20.50;98.90;;;;;;5030733;28;20669;-61
2022/10/08 11:51:31;;;;;;;6.00;2.00;;;20.50;99.60;;;;;;5050939;28;20205;-63
2022/10/08 11:54:06;;;;;;;8.93;2.60;;;20.40;99.90;;;;;;5050831;28;20231;-63
2022/10/08 11:56:35;;;;;;;7.22;1.98;;;20.20;99.80;;;;;;5050194;28;20209;-60
2022/10/08 11:59:08;;;;;;;8.98;2.47;;;20.10;99.80;;;;;;5050837;28;20209;-63
2022/10/08 12:01:52;;;;;;;6.22;2.05;;;20.00;99.90;;;;;;5050649;28;20556;-61
2022/10/08 12:04:23;;;;;;;10.52;2.30;;;19.90;99.10;;;;;;5051203;28;20578;-62
2022/10/08 12:07:02;;;;;;;7.40;2.00;;;19.80;99.30;;;;;;5050466;28;20205;-61
2022/10/08 12:09:59;;;;;;;5.60;2.30;;;19.80;99.40;;;;;;5050753;28;20703;-62
2022/10/08 12:12:26;;;;;;;9.75;3.25;;;20.00;99.90;;;;;;5050930;28;20229;-61
2022/10/08 12:14:53;;;;;;;10.88;2.30;;;20.30;99.90;;;;;;5050462;28;20233;-61
2022/10/08 12:17:20;;;;;;;8.20;1.95;;;20.60;99.60;;;;;;5049938;28;20309;-61
2022/10/08 12:20:28;;;;;;;4.93;1.95;;;20.60;99.40;;;;;;5050586;28;20587;-61
2022/10/08 12:23:02;;;;;;;6.75;1.80;;;20.50;98.60;;;;;;5045422;28;20225;-60
2022/10/08 12:25:38;;;;;;;5.97;1.80;;;20.40;98.60;;;;;;5050600;28;20292;-60
2022/10/08 12:28:44;;;;;;;6.75;1.70;;;20.10;98.80;;;;;;5050240;28;20235;-59
2022/10/08 12:31:38;;;;;;;5.95;1.92;;;19.90;99.50;;;;;;5050663;28;20220;-61
2022/10/08 12:34:16;;;;;;;8.52;2.00;;;19.90;99.80;;;;;;5039926;28;20740;-62
2022/10/08 12:36:54;;;;;;;6.57;2.10;;;20.00;99.60;;;;;;5055383;28;20665;-60
2022/10/08 12:39:31;;;;;;;3.85;1.60;;;20.20;99.80;;;;;;5055801;28;20581;-61
2022/10/08 12:42:10;;;;;;;4.57;2.05;;;20.40;99.60;;;;;;5055711;28;20574;-59
2022/10/08 12:44:48;;;;;;;7.35;2.05;;;20.60;99.90;;;;;;5055578;28;20669;-59
2022/10/08 12:47:29;;;;;;;4.45;1.83;;;20.90;99.10;;;;;;5054582;28;20209;-59
2022/10/08 12:50:00;;;;;;;6.65;2.10;;;21.30;98.80;;;;;;5055473;28;20205;-59
2022/10/08 12:52:32;;;;;;;6.15;2.22;;;21.80;97.80;;;;;;5055379;28;20273;-60
2022/10/08 12:55:02;;;;;;;5.32;2.13;;;22.00;97.60;;;;;;5055313;28;20602;-60
2022/10/08 12:57:33;;;;;;;4.32;2.03;;;22.40;97.00;;;;;;5054745;28;20335;-59
2022/10/08 13:00:05;;;;;;;6.57;3.67;;;22.70;96.90;;;;;;5054990;28;20300;-59
2022/10/08 13:02:36;;;;;;;8.50;1.90;;;23.00;96.30;;;;;;5054697;28;20226;-58
2022/10/08 13:05:04;;;;;;;3.83;1.50;;;23.10;96.00;;;;;;5054882;28;20296;-61